Terminal Aerodrome Forecast
Issued by NWS Albany, NY

Home | Current Version | Previous Version | Text Only | Print | Product List | Glossary On
Versions: 1 2 3 4 5 6 7 8 9 10 11 12 13 14 15 16 17 18 19 20 21 22 23 24 25
000
FTUS41 KALY 271313 AAC
TAFGFL
TAF AMD
KGFL 271313Z 2713/2812 10005KT 3SM -RA BR BKN008 OVC012
      WS020/18030KT
      TEMPO 2713/2715 1 1/2SM -RA BR BKN002 OVC006
     FM271800 VRB03KT P6SM VCSH OVC010
     FM280000 VRB03KT 5SM BR VCSH OVC005=

USA.gov is the U.S. government's official web portal to all federal, state and local government web resources and services.